Terminal Aerodrome Forecast
Issued by NWS Upton, NY

Current Version | Previous Version | Text Only | Print | Product List | Glossary On
Versions: 1 2 3 4 5 6 7 8 9 10 11 12 13 14 15 16 17 18 19 20 21 22 23 24 25 26 27 28 29 30
000
FTUS41 KOKX 302331
TAFBDR
TAF
KBDR 302331Z 3100/3124 28007KT P6SM SCT050 BKN100
     FM310500 28006KT P6SM SKC
     FM311500 25007KT P6SM SCT040 SCT150
     FM311800 22006KT P6SM SCT040 BKN100
     FM312100 VRB04KT 5SM -RA BR BKN015 OVC050=

USA.gov is the U.S. government's official web portal to all federal, state and local government web resources and services.